Time;durP1;ratioP1;P1;durP2;ratioP2;P2;SDS_P1;SDS_P2;PMS_P1;PMS_P2;Temp;Humidity;BMP_temperature;BMP_pressure;BME280_temperature;BME280_humidity;BME280_pressure;Samples;Min_cycle;Max_cycle;Signal;HPM_P1;HPM_P2
2022/09/26 00:01:46;;;;;;;;;;;;;;;14.73;67.73;100520.25;5014294;28;19936;-52
2022/09/26 00:04:11;;;;;;;;;;;;;;;14.71;67.67;100533.59;5020370;28;19929;-52
2022/09/26 00:06:36;;;;;;;;;;;;;;;14.68;67.83;100533.81;5023506;28;20399;-51
2022/09/26 00:09:02;;;;;;;;;;;;;;;14.67;67.69;100539.22;5010791;28;19921;-52
2022/09/26 00:11:30;;;;;;;;;;;;;;;14.66;67.73;100527.78;5024959;28;20676;-52
2022/09/26 00:13:57;;;;;;;;;;;;;;;14.66;67.82;100526.94;5014608;28;20007;-52
2022/09/26 00:16:24;;;;;;;;;;;;;;;14.63;67.84;100526.22;5014515;28;19967;-52
2022/09/26 00:18:50;;;;;;;;;;;;;;;14.62;67.90;100521.88;5019199;28;20007;-52
2022/09/26 00:21:16;;;;;;;;;;;;;;;14.61;67.96;100522.84;5019672;28;19921;-51
2022/09/26 00:23:41;;;;;;;;;;;;;;;14.61;67.86;100525.47;5018045;28;19921;-52
2022/09/26 00:26:07;;;;;;;;;;;;;;;14.59;67.91;100522.13;5021025;28;19979;-52
2022/09/26 00:28:32;;;;;;;;;;;;;;;14.59;67.81;100522.13;5023376;28;20000;-52
2022/09/26 00:31:05;;;;;;;;;;;;;;;14.59;67.91;100530.09;5019991;28;19965;-53
2022/09/26 00:33:31;;;;;;;;;;;;;;;14.60;67.85;100531.75;5020486;28;19984;-51
2022/09/26 00:35:56;;;;;;;;;;;;;;;14.60;67.93;100518.50;5022449;28;20810;-52
2022/09/26 00:38:21;;;;;;;;;;;;;;;14.61;67.80;100522.00;5019473;28;19948;-51
2022/09/26 00:40:47;;;;;;;;;;;;;;;14.60;67.76;100518.50;5019116;28;20347;-51
2022/09/26 00:43:31;;;;;;;;;;;;;;;14.58;67.72;100516.94;5021243;28;20031;-51
2022/09/26 00:46:06;;;;;;;;;;;;;;;14.55;67.85;100512.75;5020346;28;19921;-52
2022/09/26 00:48:34;;;;;;;;;;;;;;;14.53;67.77;100517.31;5018010;28;20546;-51
2022/09/26 00:50:59;;;;;;;;;;;;;;;14.50;67.84;100516.72;5023218;28;19990;-52
2022/09/26 00:53:27;;;;;;;;;;;;;;;14.48;67.79;100508.88;5019329;28;19930;-54
2022/09/26 00:55:58;;;;;;;;;;;;;;;14.42;67.83;100509.38;5024617;28;20388;-52
2022/09/26 00:58:53;;;;;;;;;;;;;;;14.38;67.84;100507.91;5021277;28;19936;-51
2022/09/26 01:01:19;;;;;;;;;;;;;;;14.33;68.02;100498.53;5015513;28;19964;-53
2022/09/26 01:03:45;;;;;;;;;;;;;;;14.32;67.98;100504.78;5013366;28;20011;-51
2022/09/26 01:06:11;;;;;;;;;;;;;;;14.32;68.08;100501.28;5015627;28;19936;-54
2022/09/26 01:08:41;;;;;;;;;;;;;;;14.31;68.13;100495.16;5024447;28;19917;-52
2022/09/26 01:11:08;;;;;;;;;;;;;;;14.33;67.91;100497.69;5022980;28;19925;-51
2022/09/26 01:13:35;;;;;;;;;;;;;;;14.35;67.88;100502.84;5022957;28;20016;-52
2022/09/26 01:16:01;;;;;;;;;;;;;;;14.32;67.87;100499.47;5013404;28;19929;-51
2022/09/26 01:18:27;;;;;;;;;;;;;;;14.31;67.80;100497.78;5018753;28;20013;-52
2022/09/26 01:21:11;;;;;;;;;;;;;;;14.31;67.83;100495.16;5017176;28;20841;-53
2022/09/26 01:23:40;;;;;;;;;;;;;;;14.30;67.86;100492.63;5019151;28;20388;-51
2022/09/26 01:26:20;;;;;;;;;;;;;;;14.30;67.96;100496.09;5014818;28;19932;-53
2022/09/26 01:29:04;;;;;;;;;;;;;;;14.32;67.91;100493.34;5020801;28;19974;-51
2022/09/26 01:32:47;;;;;;;;;;;;;;;14.32;67.91;100488.91;5019394;28;19975;-52
2022/09/26 01:34:36;;;;;;;;;;;;;;;14.31;67.80;100491.66;5016721;28;19929;-52
2022/09/26 01:37:09;;;;;;;;;;;;;;;14.28;67.72;100490.13;5013473;28;19920;-51
2022/09/26 01:39:57;;;;;;;;;;;;;;;14.27;67.82;100491.06;5013364;28;19928;-52
2022/09/26 01:42:38;;;;;;;;;;;;;;;14.24;67.68;100491.31;5019503;28;19926;-52
2022/09/26 01:45:11;;;;;;;;;;;;;;;14.21;67.73;100474.84;5020473;28;19921;-50
2022/09/26 01:47:42;;;;;;;;;;;;;;;14.14;67.53;100475.28;5034957;28;19921;-52
2022/09/26 01:50:26;;;;;;;;;;;;;;;14.07;67.72;100473.25;5022371;28;20410;-52
2022/09/26 01:52:57;;;;;;;;;;;;;;;14.00;67.76;100472.88;5018879;28;20388;-52
2022/09/26 01:55:42;;;;;;;;;;;;;;;13.95;67.84;100467.06;5019435;28;20012;-53
2022/09/26 01:58:11;;;;;;;;;;;;;;;13.93;68.03;100458.41;5018956;28;20044;-52
2022/09/26 02:00:38;;;;;;;;;;;;;;;13.92;67.88;100457.59;5010479;28;19921;-52
2022/09/26 02:03:07;;;;;;;;;;;;;;;13.94;67.81;100453.03;5013959;28;19921;-51
2022/09/26 02:05:42;;;;;;;;;;;;;;;13.93;67.70;100456.63;5020523;28;19949;-51
2022/09/26 02:08:16;;;;;;;;;;;;;;;13.96;67.77;100456.41;5013661;28;19924;-52
2022/09/26 02:10:44;;;;;;;;;;;;;;;13.94;67.59;100463.59;5016528;28;19932;-51
2022/09/26 02:13:13;;;;;;;;;;;;;;;13.91;67.71;100461.19;5009988;28;19921;-51
2022/09/26 02:15:39;;;;;;;;;;;;;;;13.84;67.57;100452.88;5013343;28;19925;-51
2022/09/26 02:18:22;;;;;;;;;;;;;;;13.80;67.83;100453.22;5018840;28;20254;-51
2022/09/26 02:20:50;;;;;;;;;;;;;;;13.77;67.77;100450.81;5020003;28;19929;-52
2022/09/26 02:23:15;;;;;;;;;;;;;;;13.77;67.85;100450.81;5018718;28;20024;-51
2022/09/26 02:25:41;;;;;;;;;;;;;;;13.77;67.81;100448.19;5019565;28;20043;-51
2022/09/26 02:28:06;;;;;;;;;;;;;;;13.74;67.76;100451.91;5017970;28;20017;-52
2022/09/26 02:30:32;;;;;;;;;;;;;;;13.75;67.74;100450.94;5020457;28;20387;-53
2022/09/26 02:32:57;;;;;;;;;;;;;;;13.74;67.82;100446.63;5020027;28;19944;-52
2022/09/26 02:38:06;;;;;;;;;;;;;;;13.71;67.70;100452.13;5016827;28;20653;-51
2022/09/26 02:40:52;;;;;;;;;;;;;;;13.66;67.64;100446.34;5019508;28;19925;-51
2022/09/26 02:43:17;;;;;;;;;;;;;;;13.62;67.79;100442.22;5011170;28;20408;-51
2022/09/26 02:45:50;;;;;;;;;;;;;;;13.59;67.67;100438.03;5018848;28;20071;-51
2022/09/26 02:48:16;;;;;;;;;;;;;;;13.57;67.87;100432.00;5018671;28;19921;-51
2022/09/26 02:51:00;;;;;;;;;;;;;;;13.55;67.73;100429.50;5010651;28;19925;-51
2022/09/26 02:53:44;;;;;;;;;;;;;;;13.55;67.86;100426.00;5015005;28;19925;-51
2022/09/26 02:56:18;;;;;;;;;;;;;;;13.54;67.65;100413.72;5016403;28;19975;-52
2022/09/26 02:59:02;;;;;;;;;;;;;;;13.57;67.76;100421.44;5017657;28;20436;-51
2022/09/26 03:01:40;;;;;;;;;;;;;;;13.57;67.72;100418.78;5027095;28;19921;-52
2022/09/26 03:04:06;;;;;;;;;;;;;;;13.57;67.75;100416.16;5016804;28;19937;-52
2022/09/26 03:06:40;;;;;;;;;;;;;;;13.56;67.63;100411.81;5017302;28;19928;-51
2022/09/26 03:09:06;;;;;;;;;;;;;;;13.55;67.67;100404.84;5015926;28;19936;-51
2022/09/26 03:11:33;;;;;;;;;;;;;;;13.53;67.66;100406.78;5020647;28;19944;-51
2022/09/26 03:13:59;;;;;;;;;;;;;;;13.52;67.69;100405.09;5017817;28;20356;-51
2022/09/26 03:16:26;;;;;;;;;;;;;;;13.52;67.51;100399.81;5014374;28;19925;-52
2022/09/26 03:18:55;;;;;;;;;;;;;;;13.50;67.60;100405.19;5015878;28;19932;-51
2022/09/26 03:21:20;;;;;;;;;;;;;;;13.46;67.51;100395.81;5016773;28;20854;-52
2022/09/26 03:23:46;;;;;;;;;;;;;;;13.40;67.50;100402.41;5014150;28;19921;-51
2022/09/26 03:26:13;;;;;;;;;;;;;;;13.38;67.60;100396.38;5015911;28;20549;-51
2022/09/26 03:28:38;;;;;;;;;;;;;;;13.37;67.44;100399.97;5012902;28;19979;-51
2022/09/26 03:31:04;;;;;;;;;;;;;;;13.34;67.45;100392.28;5016436;28;20496;-52
2022/09/26 03:33:29;;;;;;;;;;;;;;;13.34;67.48;100402.84;5011141;28;19936;-52
2022/09/26 03:35:55;;;;;;;;;;;;;;;13.33;67.55;100403.81;5017608;28;19929;-52
2022/09/26 03:38:20;;;;;;;;;;;;;;;13.30;67.44;100390.81;5016951;28;19925;-52
2022/09/26 03:40:45;;;;;;;;;;;;;;;13.28;67.50;100395.38;5015309;28;19932;-52
2022/09/26 03:43:11;;;;;;;;;;;;;;;13.29;67.57;100404.16;5014088;28;19924;-51
2022/09/26 03:45:36;;;;;;;;;;;;;;;13.26;67.61;100407.84;5015577;28;20384;-52
2022/09/26 03:48:02;;;;;;;;;;;;;;;13.24;67.42;100401.81;5015844;28;20280;-51
2022/09/26 03:50:27;;;;;;;;;;;;;;;13.21;67.44;100402.91;5018974;28;19917;-52
2022/09/26 03:52:52;;;;;;;;;;;;;;;13.20;67.42;100405.69;5015859;28;19917;-52
2022/09/26 03:55:18;;;;;;;;;;;;;;;13.19;67.42;100406.63;5018791;28;19929;-53
2022/09/26 03:57:43;;;;;;;;;;;;;;;13.19;67.57;100398.72;5018441;28;19996;-52
2022/09/26 04:00:09;;;;;;;;;;;;;;;13.19;67.50;100404.00;5016340;28;19932;-52
2022/09/26 04:02:34;;;;;;;;;;;;;;;13.17;67.36;100395.34;5013348;28;19925;-51
2022/09/26 04:04:59;;;;;;;;;;;;;;;13.12;67.37;100395.69;5017615;28;19932;-51
2022/09/26 04:07:25;;;;;;;;;;;;;;;13.09;67.43;100396.72;5010695;28;20018;-51
2022/09/26 04:09:50;;;;;;;;;;;;;;;13.08;67.52;100391.56;5015317;28;20404;-52
2022/09/26 04:12:16;;;;;;;;;;;;;;;13.05;67.43;100389.16;5011756;28;19917;-53
2022/09/26 04:14:42;;;;;;;;;;;;;;;13.04;67.47;100390.97;5012610;28;20015;-51
2022/09/26 04:17:08;;;;;;;;;;;;;;;13.01;67.40;100385.91;5006405;28;20019;-51
2022/09/26 04:19:33;;;;;;;;;;;;;;;13.00;67.56;100384.22;5015170;28;20330;-52
2022/09/26 04:21:58;;;;;;;;;;;;;;;12.99;67.49;100379.88;5016272;28;19947;-53
2022/09/26 04:24:24;;;;;;;;;;;;;;;12.98;67.52;100380.84;5020804;28;20956;-51
2022/09/26 04:26:49;;;;;;;;;;;;;;;12.98;67.50;100378.19;5018684;28;19936;-52
2022/09/26 04:29:15;;;;;;;;;;;;;;;13.00;67.66;100378.09;5023498;28;19929;-52
2022/09/26 04:31:40;;;;;;;;;;;;;;;13.01;67.44;100374.50;5023681;28;20937;-51
2022/09/26 04:34:06;;;;;;;;;;;;;;;13.00;67.58;100376.28;5020441;28;19921;-51
2022/09/26 04:36:31;;;;;;;;;;;;;;;13.00;67.33;100373.66;5018171;28;19921;-52
2022/09/26 04:38:59;;;;;;;;;;;;;;;12.99;67.61;100371.97;5022422;28;19921;-52
2022/09/26 04:41:26;;;;;;;;;;;;;;;12.98;67.52;100365.00;5018988;28;20316;-53
2022/09/26 04:43:52;;;;;;;;;;;;;;;12.98;67.51;100370.28;5018348;28;19936;-52
2022/09/26 04:46:21;;;;;;;;;;;;;;;12.96;67.49;100367.75;5019476;28;19925;-52
2022/09/26 04:48:47;;;;;;;;;;;;;;;12.95;67.45;100373.13;5021319;28;20459;-51
2022/09/26 04:51:13;;;;;;;;;;;;;;;12.93;67.59;100375.06;5018151;28;19929;-51
2022/09/26 04:53:39;;;;;;;;;;;;;;;12.92;67.52;100368.09;5017350;28;19931;-52
2022/09/26 04:56:05;;;;;;;;;;;;;;;12.93;67.58;100373.25;5013381;28;20762;-52
2022/09/26 04:58:31;;;;;;;;;;;;;;;12.96;67.47;100377.47;5013979;28;19931;-51
2022/09/26 05:01:06;;;;;;;;;;;;;;;12.99;67.41;100382.53;5009774;28;19925;-52
2022/09/26 05:03:32;;;;;;;;;;;;;;;12.99;67.41;100382.53;5013493;28;19994;-51
2022/09/26 05:05:57;;;;;;;;;;;;;;;13.02;67.50;100382.31;5012965;28;19925;-51
2022/09/26 05:08:23;;;;;;;;;;;;;;;13.01;67.44;100380.63;5002819;28;19964;-51
2022/09/26 05:10:52;;;;;;;;;;;;;;;13.03;67.47;100377.84;5006108;28;19985;-52
2022/09/26 05:13:18;;;;;;;;;;;;;;;13.03;67.40;100378.72;5009103;28;20384;-51
2022/09/26 05:15:43;;;;;;;;;;;;;;;13.04;67.53;100372.47;5008180;28;19933;-52
2022/09/26 05:18:10;;;;;;;;;;;;;;;13.04;67.52;100364.56;5013896;28;20373;-51
2022/09/26 05:20:36;;;;;;;;;;;;;;;13.05;67.60;100374.16;5017043;28;19970;-52
2022/09/26 05:23:02;;;;;;;;;;;;;;;13.07;67.48;100371.41;5016104;28;19917;-52
2022/09/26 05:28:13;;;;;;;;;;;;;;;13.09;67.43;100365.03;5019837;28;20386;-51
2022/09/26 05:30:39;;;;;;;;;;;;;;;13.10;67.51;100365.88;5013581;28;19929;-52
2022/09/26 05:33:05;;;;;;;;;;;;;;;13.10;67.37;100369.34;5020292;28;20320;-51
2022/09/26 05:35:34;;;;;;;;;;;;;;;13.10;67.37;100371.16;5003739;28;19936;-53
2022/09/26 05:38:03;;;;;;;;;;;;;;;13.08;67.39;100376.56;5015352;28;20315;-50
2022/09/26 05:43:12;;;;;;;;;;;;;;;13.07;67.27;100368.75;5015827;28;19944;-51
2022/09/26 05:45:37;;;;;;;;;;;;;;;13.06;67.47;100372.34;5020420;28;20319;-51
2022/09/26 05:48:03;;;;;;;;;;;;;;;13.03;67.38;100368.16;5022402;28;19928;-50
2022/09/26 05:50:28;;;;;;;;;;;;;;;13.01;67.60;100367.41;5022539;28;20331;-51
2022/09/26 05:52:57;;;;;;;;;;;;;;;13.01;67.61;100370.06;5018491;28;20066;-50
2022/09/26 05:55:24;;;;;;;;;;;;;;;13.02;67.70;100368.25;5023649;28;19925;-51
2022/09/26 05:57:50;;;;;;;;;;;;;;;13.04;67.58;100369.84;5023746;28;19933;-51
2022/09/26 06:00:15;;;;;;;;;;;;;;;13.05;67.49;100366.25;5024373;28;20798;-51
2022/09/26 06:02:40;;;;;;;;;;;;;;;13.06;67.52;100361.78;5022933;28;19928;-54
2022/09/26 06:05:06;;;;;;;;;;;;;;;13.08;67.50;100360.69;5022769;28;19929;-51
2022/09/26 06:07:31;;;;;;;;;;;;;;;13.08;67.49;100360.69;5024177;28;19985;-51
2022/09/26 06:09:56;;;;;;;;;;;;;;;13.10;67.56;100358.78;5022815;28;19925;-51
2022/09/26 06:12:24;;;;;;;;;;;;;;;13.14;67.53;100361.22;5024360;28;19925;-50
2022/09/26 06:14:51;;;;;;;;;;;;;;;13.15;67.65;100365.53;5025697;28;19932;-51
2022/09/26 06:17:17;;;;;;;;;;;;;;;13.15;67.51;100360.25;5023099;28;19979;-51
2022/09/26 06:19:43;;;;;;;;;;;;;;;13.16;67.53;100361.94;5022348;28;20012;-51
2022/09/26 06:22:08;;;;;;;;;;;;;;;13.17;67.55;100363.63;5022110;28;19956;-51
2022/09/26 06:24:34;;;;;;;;;;;;;;;13.20;67.47;100363.41;5019788;28;19960;-52
2022/09/26 06:26:59;;;;;;;;;;;;;;;13.20;67.35;100358.13;5023061;28;20020;-50
2022/09/26 06:29:24;;;;;;;;;;;;;;;13.19;67.40;100357.25;5023033;28;19925;-51
2022/09/26 06:31:49;;;;;;;;;;;;;;;13.18;67.31;100347.66;5026833;28;20011;-51
2022/09/26 06:34:15;;;;;;;;;;;;;;;13.20;67.30;100347.56;5023628;28;20405;-51
2022/09/26 06:36:40;;;;;;;;;;;;;;;13.20;67.23;100352.84;5026360;28;20014;-51
2022/09/26 06:39:05;;;;;;;;;;;;;;;13.21;67.30;100344.78;5025845;28;20098;-51
2022/09/26 06:41:31;;;;;;;;;;;;;;;13.22;67.28;100345.66;5026019;28;19921;-51
2022/09/26 06:43:56;;;;;;;;;;;;;;;13.24;67.26;100343.69;5025263;28;19931;-51
2022/09/26 06:46:21;;;;;;;;;;;;;;;13.24;67.43;100349.84;5025257;28;19968;-54
2022/09/26 06:48:47;;;;;;;;;;;;;;;13.25;67.31;100340.09;5025805;28;19925;-52
2022/09/26 06:51:13;;;;;;;;;;;;;;;13.24;67.39;100344.56;5029181;28;20626;-51
2022/09/26 06:53:38;;;;;;;;;;;;;;;13.26;67.29;100347.06;5022414;28;19927;-50
2022/09/26 06:56:04;;;;;;;;;;;;;;;13.26;67.44;100341.78;5027188;28;20396;-51
2022/09/26 06:58:30;;;;;;;;;;;;;;;13.28;67.24;100339.88;5024677;28;19996;-51
2022/09/26 07:00:57;;;;;;;;;;;;;;;13.30;67.32;100334.50;5023443;28;19929;-52
2022/09/26 07:03:24;;;;;;;;;;;;;;;13.31;67.38;100339.66;5026344;28;19928;-51
2022/09/26 07:05:50;;;;;;;;;;;;;;;13.33;67.41;100337.75;5027170;28;20291;-50
2022/09/26 07:08:15;;;;;;;;;;;;;;;13.35;67.50;100341.13;5021139;28;20301;-53
2022/09/26 07:10:41;;;;;;;;;;;;;;;13.36;67.45;100348.09;5027974;28;19925;-51
2022/09/26 07:13:08;;;;;;;;;;;;;;;13.37;67.41;100338.34;5026241;28;20403;-52
2022/09/26 07:15:34;;;;;;;;;;;;;;;13.37;67.34;100339.19;5029028;28;19933;-52
2022/09/26 07:18:01;;;;;;;;;;;;;;;13.39;67.45;100331.97;5024379;28;20281;-52
2022/09/26 07:20:28;;;;;;;;;;;;;;;13.41;67.42;100335.38;5022845;28;19968;-51
2022/09/26 07:22:53;;;;;;;;;;;;;;;13.46;67.43;100336.84;5023429;28;19947;-51
2022/09/26 07:25:19;;;;;;;;;;;;;;;13.48;67.35;100329.63;5027727;28;19940;-52
2022/09/26 07:27:47;;;;;;;;;;;;;;;13.51;67.35;100337.34;5025060;28;19921;-52
2022/09/26 07:30:13;;;;;;;;;;;;;;;13.54;67.35;100329.16;5025692;28;19924;-50
2022/09/26 07:32:43;;;;;;;;;;;;;;;13.59;67.20;100332.28;5027665;28;19917;-53
2022/09/26 07:35:08;;;;;;;;;;;;;;;13.61;66.85;100330.38;5023741;28;20265;-51
2022/09/26 07:37:33;;;;;;;;;;;;;;;13.60;66.98;100328.69;5026771;28;20426;-51
2022/09/26 07:39:59;;;;;;;;;;;;;;;13.59;66.81;100327.00;5028266;28;19933;-51
2022/09/26 07:42:24;;;;;;;;;;;;;;;13.64;66.74;100335.44;5024287;28;20427;-51
2022/09/26 07:44:49;;;;;;;;;;;;;;;13.70;66.71;100328.81;5027795;28;19925;-51
2022/09/26 07:50:12;;;;;;;;;;;;;;;13.81;66.44;100334.09;5024551;28;19974;-50
2022/09/26 07:52:47;;;;;;;;;;;;;;;13.86;66.35;100334.59;5022419;28;20915;-51
2022/09/26 07:55:14;;;;;;;;;;;;;;;13.93;66.20;100334.09;5027091;28;19972;-51
2022/09/26 07:57:39;;;;;;;;;;;;;;;13.99;66.08;100334.47;5023569;28;20943;-51
2022/09/26 08:00:07;;;;;;;;;;;;;;;14.05;65.94;100334.94;5027909;28;19993;-51
2022/09/26 08:02:34;;;;;;;;;;;;;;;14.09;65.75;100331.94;5025896;28;19921;-51
2022/09/26 08:05:02;;;;;;;;;;;;;;;14.13;65.67;100333.38;5024655;28;19960;-52
2022/09/26 08:07:28;;;;;;;;;;;;;;;14.17;65.51;100321.59;5025373;28;19932;-51
2022/09/26 08:09:54;;;;;;;;;;;;;;;14.20;65.31;100325.78;5023015;28;20011;-51
2022/09/26 08:12:19;;;;;;;;;;;;;;;14.25;65.20;100323.63;5026713;28;20004;-51
2022/09/26 08:14:48;;;;;;;;;;;;;;;14.31;65.03;100317.00;5020398;28;20381;-52
2022/09/26 08:17:14;;;;;;;;;;;;;;;14.36;64.93;100327.22;5025288;28;19943;-50
2022/09/26 08:19:40;;;;;;;;;;;;;;;14.40;64.71;100312.78;5027823;28;20003;-51
2022/09/26 08:22:06;;;;;;;;;;;;;;;14.43;64.57;100320.47;5020741;28;20051;-51
2022/09/26 08:24:31;;;;;;;;;;;;;;;14.44;64.33;100306.28;5024008;28;19921;-50
2022/09/26 08:26:57;;;;;;;;;;;;;;;14.46;64.29;100317.56;5021101;28;19928;-50
2022/09/26 08:29:22;;;;;;;;;;;;;;;14.48;64.02;100312.97;5023788;28;19917;-51
2022/09/26 08:31:48;;;;;;;;;;;;;;;14.52;64.10;100314.41;5025293;28;19925;-51
2022/09/26 08:34:13;;;;;;;;;;;;;;;14.54;63.96;100312.50;5022291;28;19968;-50
2022/09/26 08:36:38;;;;;;;;;;;;;;;14.57;64.00;100312.25;5021373;28;19932;-50
2022/09/26 08:39:04;;;;;;;;;;;;;;;14.60;63.75;100314.63;5019590;28;19929;-51
2022/09/26 08:41:32;;;;;;;;;;;;;;;14.62;63.63;100314.50;5022027;28;19932;-51
2022/09/26 08:43:57;;;;;;;;;;;;;;;14.61;63.60;100303.06;5020539;28;19959;-51
2022/09/26 08:46:42;;;;;;;;;;;;;;;14.66;63.54;100304.50;5022361;28;19922;-52
2022/09/26 08:49:19;;;;;;;;;;;;;;;14.71;63.41;100302.38;5025145;28;19917;-53
2022/09/26 08:51:47;;;;;;;;;;;;;;;14.76;63.22;100306.31;5023699;28;19917;-50
2022/09/26 08:54:22;;;;;;;;;;;;;;;14.81;63.18;100299.78;5021517;28;19959;-51
2022/09/26 08:56:51;;;;;;;;;;;;;;;14.82;62.87;100302.31;5021133;28;19925;-53
2022/09/26 08:59:25;;;;;;;;;;;;;;;14.83;62.87;100300.50;5022453;28;20285;-51
2022/09/26 09:01:53;;;;;;;;;;;;;;;14.83;62.70;100295.19;5024887;28;20015;-51
2022/09/26 09:04:25;;;;;;;;;;;;;;;14.84;62.67;100289.78;5022003;28;19976;-52
2022/09/26 09:06:54;;;;;;;;;;;;;;;14.85;62.59;100280.88;5026573;28;19924;-52
2022/09/26 09:09:19;;;;;;;;;;;;;;;14.89;62.47;100284.09;5026332;28;19972;-52
2022/09/26 09:12:03;;;;;;;;;;;;;;;14.90;62.04;100286.59;5026283;28;20007;-51
2022/09/26 09:14:43;;;;;;;;;;;;;;;14.90;62.18;100276.00;5022373;28;19925;-51
2022/09/26 09:17:34;;;;;;;;;;;;;;;14.93;62.15;100275.75;5025623;28;19966;-50
2022/09/26 09:20:15;;;;;;;;;;;;;;;14.99;62.34;100274.41;5020655;28;19917;-53
2022/09/26 09:22:43;;;;;;;;;;;;;;;15.07;62.15;100265.81;5024654;28;19921;-51
2022/09/26 09:25:08;;;;;;;;;;;;;;;15.14;61.96;100266.97;5025563;28;19925;-51
2022/09/26 09:27:53;;;;;;;;;;;;;;;15.19;61.87;100259.50;5024256;28;19947;-51
2022/09/26 09:30:31;;;;;;;;;;;;;;;15.26;61.73;100265.09;5018676;28;19929;-50
2022/09/26 09:33:02;;;;;;;;;;;;;;;15.30;61.65;100255.91;5023557;28;20016;-51
2022/09/26 09:35:37;;;;;;;;;;;;;;;15.31;61.52;100259.41;5021131;28;20269;-51
2022/09/26 09:38:05;;;;;;;;;;;;;;;15.31;61.48;100254.94;5022473;28;19924;-51
2022/09/26 09:40:34;;;;;;;;;;;;;;;15.33;61.53;100253.00;5021913;28;20504;-51
2022/09/26 09:43:05;;;;;;;;;;;;;;;15.36;61.52;100265.13;5017975;28;19937;-51
2022/09/26 09:45:36;;;;;;;;;;;;;;;15.40;61.34;100253.31;5018106;28;19936;-51
2022/09/26 09:48:02;;;;;;;;;;;;;;;15.45;61.19;100258.19;5019788;28;19953;-52
2022/09/26 09:50:41;;;;;;;;;;;;;;;15.52;61.07;100251.41;5015816;28;20028;-50
2022/09/26 09:53:12;;;;;;;;;;;;;;;15.55;61.09;100251.97;5018731;28;19925;-52
2022/09/26 09:55:50;;;;;;;;;;;;;;;15.60;60.90;100256.88;5018078;28;19979;-51
2022/09/26 09:58:30;;;;;;;;;;;;;;;15.65;60.74;100256.50;5017715;28;19925;-50
2022/09/26 10:01:02;;;;;;;;;;;;;;;15.69;60.52;100249.94;5019868;28;19932;-51
2022/09/26 10:03:39;;;;;;;;;;;;;;;15.72;60.37;100241.72;5021409;28;19920;-51
2022/09/26 10:06:08;;;;;;;;;;;;;;;15.76;60.19;100251.09;5020241;28;20312;-51
2022/09/26 10:08:39;;;;;;;;;;;;;;;15.79;60.03;100244.66;5020079;28;19925;-53
2022/09/26 10:11:22;;;;;;;;;;;;;;;15.83;59.96;100240.78;5019508;28;20388;-51
2022/09/26 10:13:55;;;;;;;;;;;;;;;15.87;59.76;100239.56;5017636;28;19967;-51
2022/09/26 10:16:23;;;;;;;;;;;;;;;15.88;59.71;100232.44;5019314;28;20216;-51
2022/09/26 10:19:08;;;;;;;;;;;;;;;15.89;59.66;100231.47;5019125;28;19917;-51
2022/09/26 10:21:39;;;;;;;;;;;;;;;15.90;59.53;100225.19;5020507;28;19971;-52
2022/09/26 10:24:05;;;;;;;;;;;;;;;15.91;59.59;100221.56;5018666;28;19931;-51
2022/09/26 10:26:35;;;;;;;;;;;;;;;15.91;59.36;100226.88;5017995;28;19918;-51
2022/09/26 10:29:16;;;;;;;;;;;;;;;15.94;59.20;100216.81;5018048;28;19974;-51
2022/09/26 10:31:42;;;;;;;;;;;;;;;15.99;58.93;100214.59;5021372;28;20309;-51
2022/09/26 10:34:21;;;;;;;;;;;;;;;16.04;58.98;100210.69;5016338;28;19952;-51
2022/09/26 10:36:46;;;;;;;;;;;;;;;16.09;58.88;100213.78;5020634;28;19917;-52
2022/09/26 10:42:04;;;;;;;;;;;;;;;16.11;58.35;100210.00;5016971;28;19932;-51
2022/09/26 10:44:32;;;;;;;;;;;;;;;16.13;58.30;100216.00;5023894;28;19928;-51
2022/09/26 10:46:59;;;;;;;;;;;;;;;16.15;58.04;100216.72;5019800;28;20020;-51
2022/09/26 10:49:28;;;;;;;;;;;;;;;16.17;57.99;100199.81;5020382;28;20881;-51
2022/09/26 10:52:00;;;;;;;;;;;;;;;16.19;57.98;100203.16;5020087;28;20014;-51
2022/09/26 10:54:41;;;;;;;;;;;;;;;16.22;57.93;100203.72;5022581;28;19943;-53
2022/09/26 10:57:08;;;;;;;;;;;;;;;16.23;57.80;100191.31;5023370;28;20250;-50
2022/09/26 10:59:38;;;;;;;;;;;;;;;16.25;57.76;100192.00;5025568;28;19926;-51
2022/09/26 11:02:04;;;;;;;;;;;;;;;16.29;57.59;100193.38;5021275;28;20012;-50
2022/09/26 11:07:23;;;;;;;;;;;;;;;16.35;57.55;100181.38;5023678;28;19975;-51
2022/09/26 11:09:50;;;;;;;;;;;;;;;16.36;57.59;100189.22;5023096;28;19913;-51
2022/09/26 11:12:22;;;;;;;;;;;;;;;16.38;57.46;100178.44;5023580;28;20321;-51
2022/09/26 11:14:51;;;;;;;;;;;;;;;16.41;57.53;100181.63;5011511;28;19925;-51
2022/09/26 11:17:18;;;;;;;;;;;;;;;16.44;57.35;100176.06;5020349;28;19971;-51
2022/09/26 11:19:47;;;;;;;;;;;;;;;16.45;57.08;100171.59;5026271;28;19917;-51
2022/09/26 11:22:15;;;;;;;;;;;;;;;16.49;56.95;100175.63;5024084;28;20853;-51
2022/09/26 11:24:50;;;;;;;;;;;;;;;16.52;57.21;100166.56;5023911;28;19921;-51
2022/09/26 11:27:21;;;;;;;;;;;;;;;16.57;57.02;100165.16;5024190;28;20339;-51
2022/09/26 11:30:01;;;;;;;;;;;;;;;16.61;56.84;100161.25;5022839;28;20380;-51
2022/09/26 11:32:40;;;;;;;;;;;;;;;16.68;56.70;100156.19;5016457;28;20372;-50
2022/09/26 11:35:11;;;;;;;;;;;;;;;16.75;56.65;100157.28;5023841;28;19925;-51
2022/09/26 11:37:52;;;;;;;;;;;;;;;16.85;56.44;100156.44;5027958;28;19925;-51
2022/09/26 11:40:35;;;;;;;;;;;;;;;16.95;56.09;100156.41;5029986;28;20388;-51
2022/09/26 11:43:03;;;;;;;;;;;;;;;16.99;55.93;100144.53;5024190;28;19925;-52
2022/09/26 11:45:29;;;;;;;;;;;;;;;17.06;55.96;100148.28;5025712;28;19931;-51
2022/09/26 11:48:04;;;;;;;;;;;;;;;17.10;55.73;100143.50;5024343;28;19921;-51
2022/09/26 11:50:38;;;;;;;;;;;;;;;17.14;55.51;100144.91;5024555;28;20024;-50
2022/09/26 11:53:04;;;;;;;;;;;;;;;17.21;55.61;100140.66;5020518;28;19968;-51
2022/09/26 11:55:44;;;;;;;;;;;;;;;17.24;55.58;100132.41;5026313;28;19968;-52
2022/09/26 11:58:15;;;;;;;;;;;;;;;17.26;55.33;100130.44;5026063;28;19917;-50
2022/09/26 12:00:49;;;;;;;;;;;;;;;17.26;55.38;100130.44;5025801;28;20380;-51
2022/09/26 12:03:18;;;;;;;;;;;;;;;17.26;55.16;100122.47;5023295;28;19917;-51
2022/09/26 12:06:11;;;;;;;;;;;;;;;17.25;55.05;100120.78;5024633;28;20415;-51
2022/09/26 12:08:52;;;;;;;;;;;;;;;17.19;54.68;100116.03;5024883;28;19962;-51
2022/09/26 12:11:36;;;;;;;;;;;;;;;17.15;54.74;100114.69;5024748;28;20008;-51
2022/09/26 12:14:19;;;;;;;;;;;;;;;17.12;54.92;100114.97;5021506;28;19924;-51
2022/09/26 12:17:03;;;;;;;;;;;;;;;17.10;54.69;100108.97;5021556;28;19956;-52
2022/09/26 12:19:33;;;;;;;;;;;;;;;17.11;54.66;100108.81;5024466;28;20038;-51
2022/09/26 12:25:06;;;;;;;;;;;;;;;17.17;54.59;100107.38;5022727;28;19963;-51
2022/09/26 12:28:00;;;;;;;;;;;;;;;17.22;54.51;100099.81;5024713;28;19917;-51
2022/09/26 12:30:31;;;;;;;;;;;;;;;17.25;54.06;100094.19;5017025;28;20617;-52
2022/09/26 12:33:05;;;;;;;;;;;;;;;17.28;53.73;100098.38;5021782;28;19951;-52
2022/09/26 12:35:42;;;;;;;;;;;;;;;17.29;53.84;100098.25;5020795;28;19925;-52
2022/09/26 12:38:08;;;;;;;;;;;;;;;17.30;53.70;100094.59;5022802;28;19944;-51
2022/09/26 12:40:38;;;;;;;;;;;;;;;17.29;53.85;100092.91;5023481;28;20393;-51
2022/09/26 12:43:12;;;;;;;;;;;;;;;17.28;53.51;100088.59;5021214;28;20300;-52
2022/09/26 12:45:43;;;;;;;;;;;;;;;17.27;53.60;100084.25;5023181;28;19925;-51
2022/09/26 12:48:17;;;;;;;;;;;;;;;17.29;53.58;100079.63;5024045;28;19917;-51
2022/09/26 12:50:52;;;;;;;;;;;;;;;17.30;53.49;100078.66;5016962;28;19952;-53
2022/09/26 12:53:26;;;;;;;;;;;;;;;17.31;53.32;100077.66;5024026;28;19951;-52
2022/09/26 12:56:05;;;;;;;;;;;;;;;17.32;53.54;100074.00;5027523;28;20346;-51
2022/09/26 12:58:33;;;;;;;;;;;;;;;17.33;53.46;100065.03;5022424;28;19925;-53
2022/09/26 13:01:17;;;;;;;;;;;;;;;17.34;53.21;100058.72;5020906;28;19924;-51
2022/09/26 13:03:55;;;;;;;;;;;;;;;17.34;53.15;100061.38;5022509;28;19917;-52
2022/09/26 13:06:24;;;;;;;;;;;;;;;17.36;53.29;100058.59;5023731;28;19964;-52
2022/09/26 13:09:12;;;;;;;;;;;;;;;17.37;53.36;100061.09;5023049;28;19944;-51